createdAt,value
2019-02-10T00:01:47.643Z,93426.32
2019-02-10T00:04:15.035Z,93423.39
2019-02-10T00:06:42.457Z,93427.98
2019-02-10T00:09:09.922Z,93429.77
2019-02-10T00:11:37.291Z,93423.39
2019-02-10T00:14:04.755Z,93420.22
2019-02-10T00:16:32.280Z,93409.69
2019-02-10T00:18:59.736Z,93404.48
2019-02-10T00:21:27.093Z,93402.30
2019-02-10T00:23:54.467Z,93401.39
2019-02-10T00:26:21.934Z,93397.50
2019-02-10T00:28:49.295Z,93396.20
2019-02-10T00:31:17.095Z,93395.39
2019-02-10T00:33:44.541Z,93380.95
2019-02-10T00:36:11.959Z,93374.77
2019-02-10T00:38:39.316Z,93381.64
2019-02-10T00:41:06.718Z,93382.25
2019-02-10T00:43:34.086Z,93384.20
2019-02-10T00:46:01.439Z,93386.16
2019-02-10T00:48:28.846Z,93380.27
2019-02-10T00:50:56.227Z,93372.62
2019-02-10T00:53:23.720Z,93379.97
2019-02-10T00:55:51.162Z,93378.06
2019-02-10T00:58:18.579Z,93377.54
2019-02-10T01:00:45.980Z,93371.69
2019-02-10T01:03:14.123Z,93367.66
2019-02-10T01:05:41.474Z,93377.05
2019-02-10T01:08:08.923Z,93375.46
2019-02-10T01:10:36.428Z,93369.62
2019-02-10T01:13:04.157Z,93369.97
2019-02-10T01:15:31.545Z,93369.62
2019-02-10T01:17:58.958Z,93360.14
2019-02-10T01:20:26.374Z,93355.27
2019-02-10T01:22:53.807Z,93351.64
2019-02-10T01:25:21.205Z,93349.37
2019-02-10T01:27:48.592Z,93350.05
2019-02-10T01:30:15.987Z,93341.92
2019-02-10T01:32:43.349Z,93340.58
2019-02-10T01:35:11.265Z,93328.71
2019-02-10T01:37:38.761Z,93328.59
2019-02-10T01:40:06.862Z,93325.14
2019-02-10T01:42:34.304Z,93319.83
2019-02-10T01:45:01.679Z,93316.25
2019-02-10T01:47:29.179Z,93307.19
2019-02-10T01:49:56.571Z,93307.19
2019-02-10T01:52:23.951Z,93298.12
2019-02-10T01:54:51.341Z,93291.63
2019-02-10T01:57:18.754Z,93284.03
2019-02-10T01:59:46.207Z,93278.67
2019-02-10T02:02:13.576Z,93267.89
2019-02-10T02:04:41.534Z,93267.80
2019-02-10T02:07:08.941Z,93268.77
2019-02-10T02:09:36.394Z,93259.00
2019-02-10T02:12:04.974Z,93244.33
2019-02-10T02:14:32.370Z,93242.64
2019-02-10T02:16:59.728Z,93233.21
2019-02-10T02:19:27.223Z,93219.86
2019-02-10T02:21:54.594Z,93217.20
2019-02-10T02:24:22.314Z,93209.61
2019-02-10T02:26:49.703Z,93211.06
2019-02-10T02:29:17.131Z,93199.47
2019-02-10T02:31:44.543Z,93197.16
2019-02-10T02:34:11.916Z,93202.07
2019-02-10T02:36:42.160Z,93187.09
2019-02-10T02:39:09.738Z,93184.44
2019-02-10T02:41:37.107Z,93176.62
2019-02-10T02:44:04.607Z,93164.94
2019-02-10T02:46:31.963Z,93148.59
2019-02-10T02:48:59.334Z,93143.79
2019-02-10T02:51:26.743Z,93146.38
2019-02-10T02:53:54.103Z,93141.59
2019-02-10T02:56:21.555Z,93140.06
2019-02-10T02:58:48.939Z,93138.44
2019-02-10T03:01:16.310Z,93128.41
2019-02-10T03:03:43.673Z,93114.75
2019-02-10T03:06:11.167Z,93104.25
2019-02-10T03:08:38.615Z,93094.43
2019-02-10T03:11:06.149Z,93102.14
2019-02-10T03:13:33.610Z,93113.19
2019-02-10T03:16:01.034Z,93106.19
2019-02-10T03:18:28.427Z,93100.17
2019-02-10T03:20:55.915Z,93087.96
2019-02-10T03:23:23.374Z,93090.36
2019-02-10T03:25:50.799Z,93078.39
2019-02-10T03:28:18.157Z,93085.78
2019-02-10T03:30:45.556Z,93085.78
2019-02-10T03:33:13.043Z,93067.17
2019-02-10T03:35:40.491Z,93058.25
2019-02-10T03:38:07.918Z,93045.28
2019-02-10T03:40:35.319Z,93031.94
2019-02-10T03:43:02.776Z,93013.34
2019-02-10T03:45:30.122Z,93003.83
2019-02-10T03:47:57.518Z,93026.92
2019-02-10T03:50:24.882Z,93036.79
2019-02-10T03:52:52.277Z,93026.55
2019-02-10T03:55:19.665Z,93029.52
2019-02-10T03:57:47.119Z,93013.08
2019-02-10T04:00:14.586Z,93018.67
2019-02-10T04:02:42.050Z,93031.39
2019-02-10T04:05:09.421Z,93019.81
2019-02-10T04:07:36.801Z,93016.94
2019-02-10T04:10:04.302Z,93005.30
2019-02-10T04:12:31.668Z,93005.12
2019-02-10T04:14:59.151Z,93015.47
2019-02-10T04:17:26.549Z,93011.45
2019-02-10T04:19:53.951Z,93014.72
2019-02-10T04:22:21.397Z,93003.32
2019-02-10T04:24:48.754Z,92993.58
2019-02-10T04:27:16.113Z,92992.33
2019-02-10T04:29:43.521Z,92986.44
2019-02-10T04:32:10.880Z,92981.30
2019-02-10T04:34:38.244Z,92977.78
2019-02-10T04:37:05.626Z,92966.50
2019-02-10T04:39:32.998Z,92960.73
2019-02-10T04:42:00.491Z,92954.23
2019-02-10T04:44:27.947Z,92941.69
2019-02-10T04:46:55.307Z,92927.45
2019-02-10T04:49:22.759Z,92922.48
2019-02-10T04:51:50.278Z,92923.48
2019-02-10T04:54:17.646Z,92925.59
2019-02-10T04:56:45.108Z,92930.17
2019-02-10T04:59:12.490Z,92925.12
2019-02-10T05:01:39.851Z,92924.84
2019-02-10T05:04:07.274Z,92931.40
2019-02-10T05:06:34.735Z,92929.01
2019-02-10T05:09:03.698Z,92923.91
2019-02-10T05:11:31.089Z,92927.09
2019-02-10T05:13:58.463Z,92907.26
2019-02-10T05:16:25.859Z,92909.69
2019-02-10T05:18:53.262Z,92898.15
2019-02-10T05:21:20.821Z,92891.02
2019-02-10T05:23:48.431Z,92887.25
2019-02-10T05:26:15.811Z,92871.99
2019-02-10T05:28:43.165Z,92860.64
2019-02-10T05:31:10.688Z,92859.66
2019-02-10T05:33:38.028Z,92865.95
2019-02-10T05:36:05.704Z,92849.08
2019-02-10T05:38:33.054Z,92854.20
2019-02-10T05:41:00.452Z,92859.23
2019-02-10T05:43:27.865Z,92843.47
2019-02-10T05:45:55.223Z,92836.95
2019-02-10T05:48:22.676Z,92840.46
2019-02-10T05:50:50.067Z,92846.07
2019-02-10T05:53:17.520Z,92837.98
2019-02-10T05:55:44.914Z,92841.27
2019-02-10T05:58:12.353Z,92842.84
2019-02-10T06:00:39.843Z,92827.13
2019-02-10T06:03:07.313Z,92822.63
2019-02-10T06:05:34.753Z,92810.42
2019-02-10T06:08:02.144Z,92805.87
2019-02-10T06:10:29.525Z,92802.64
2019-02-10T06:12:56.914Z,92795.48
2019-02-10T06:15:24.266Z,92795.39
2019-02-10T06:17:51.627Z,92800.30
2019-02-10T06:20:19.233Z,92790.19
2019-02-10T06:22:46.586Z,92787.20
2019-02-10T06:25:14.519Z,92786.12
2019-02-10T06:27:41.921Z,92781.49
2019-02-10T06:30:09.742Z,92792.94
2019-02-10T06:32:37.153Z,92795.58
2019-02-10T06:35:05.052Z,92788.53
2019-02-10T06:37:32.488Z,92790.77
2019-02-10T06:39:59.873Z,92772.90
2019-02-10T06:42:27.262Z,92776.02
2019-02-10T06:44:54.639Z,92762.69
2019-02-10T06:47:22.081Z,92763.92
2019-02-10T06:49:49.535Z,92758.92
2019-02-10T06:52:18.699Z,92755.63
2019-02-10T06:54:56.761Z,92754.12
2019-02-10T06:57:24.850Z,92763.14
2019-02-10T07:00:17.814Z,92755.66
2019-02-10T07:03:08.391Z,92748.34
2019-02-10T07:05:35.779Z,92742.53
2019-02-10T07:08:03.136Z,92743.11
2019-02-10T07:10:31.719Z,92728.08
2019-02-10T07:12:59.127Z,92719.95
2019-02-10T07:15:47.134Z,92721.67
2019-02-10T07:18:32.585Z,92711.42
2019-02-10T07:21:00.058Z,92712.62
2019-02-10T07:24:05.398Z,92700.57
2019-02-10T07:26:58.080Z,92691.55
2019-02-10T07:29:43.720Z,92694.16
2019-02-10T07:32:31.896Z,92687.32
2019-02-10T07:35:04.618Z,92685.02
2019-02-10T07:37:37.774Z,92683.48
2019-02-10T07:40:24.644Z,92676.87
2019-02-10T07:43:18.002Z,92670.03
2019-02-10T07:46:07.850Z,92661.58
2019-02-10T07:48:38.064Z,92669.16
2019-02-10T07:51:43.132Z,92648.84
2019-02-10T07:54:16.087Z,92642.59
2019-02-10T07:57:05.823Z,92630.56
2019-02-10T07:59:51.684Z,92633.17
2019-02-10T08:02:56.694Z,92638.61
2019-02-10T08:05:35.196Z,92626.38
2019-02-10T08:08:22.165Z,92627.39
2019-02-10T08:11:12.134Z,92624.30
2019-02-10T08:13:45.878Z,92625.84
2019-02-10T08:16:20.842Z,92614.98
2019-02-10T08:19:14.146Z,92617.59
2019-02-10T08:21:54.908Z,92607.37
2019-02-10T08:24:27.507Z,92600.74
2019-02-10T08:26:59.767Z,92608.94
2019-02-10T08:29:30.237Z,92606.13
2019-02-10T08:32:35.570Z,92607.45
2019-02-10T08:35:06.936Z,92614.28
2019-02-10T08:37:42.006Z,92606.80
2019-02-10T08:40:31.003Z,92584.06
2019-02-10T08:43:24.422Z,92589.28
2019-02-10T08:46:13.136Z,92584.50
2019-02-10T08:48:49.491Z,92579.77
2019-02-10T08:51:36.422Z,92565.27
2019-02-10T08:54:04.166Z,92572.73
2019-02-10T08:56:31.622Z,92569.55
2019-02-10T08:58:59.019Z,92560.70
2019-02-10T09:01:26.486Z,92559.67
2019-02-10T09:03:53.976Z,92566.16
2019-02-10T09:06:21.452Z,92562.59
2019-02-10T09:08:48.816Z,92561.08
2019-02-10T09:11:16.338Z,92545.25
2019-02-10T09:13:43.846Z,92539.69
2019-02-10T09:16:11.227Z,92531.05
2019-02-10T09:18:38.627Z,92524.41
2019-02-10T09:21:06.071Z,92517.66
2019-02-10T09:23:33.452Z,92513.44
2019-02-10T09:26:00.840Z,92517.89
2019-02-10T09:28:28.269Z,92513.20
2019-02-10T09:30:55.686Z,92517.59
2019-02-10T09:33:23.097Z,92518.16
2019-02-10T09:35:50.493Z,92512.88
2019-02-10T09:38:17.919Z,92505.66
2019-02-10T09:40:45.374Z,92503.87
2019-02-10T09:43:12.791Z,92493.70
2019-02-10T09:45:40.208Z,92487.02
2019-02-10T09:48:07.768Z,92491.24
2019-02-10T09:50:35.233Z,92477.27
2019-02-10T09:53:02.630Z,92480.04
2019-02-10T09:55:30.047Z,92486.72
2019-02-10T09:57:57.498Z,92482.39
2019-02-10T10:00:24.925Z,92477.31
2019-02-10T10:02:52.403Z,92467.06
2019-02-10T10:05:19.977Z,92470.17
2019-02-10T10:07:47.520Z,92468.22
2019-02-10T10:10:15.052Z,92459.22
2019-02-10T10:12:42.807Z,92465.55
2019-02-10T10:15:11.199Z,92455.20
2019-02-10T10:17:38.613Z,92445.70
2019-02-10T10:20:07.133Z,92449.97
2019-02-10T10:22:34.649Z,92441.86
2019-02-10T10:25:02.074Z,92433.88
2019-02-10T10:27:29.478Z,92430.39
2019-02-10T10:29:56.900Z,92417.02
2019-02-10T10:32:24.273Z,92423.28
2019-02-10T10:34:51.693Z,92414.11
2019-02-10T10:37:19.219Z,92417.53
2019-02-10T10:39:46.654Z,92409.48
2019-02-10T10:42:14.090Z,92418.02
2019-02-10T10:44:41.614Z,92417.60
2019-02-10T10:47:09.061Z,92411.92
2019-02-10T10:49:36.586Z,92406.40
2019-02-10T10:52:04.020Z,92412.78
2019-02-10T10:54:31.754Z,92413.95
2019-02-10T10:56:59.281Z,92396.47
2019-02-10T10:59:26.791Z,92389.33
2019-02-10T11:01:54.271Z,92381.69
2019-02-10T11:04:21.758Z,92377.95
2019-02-10T11:06:49.242Z,92363.09
2019-02-10T11:09:16.768Z,92366.13
2019-02-10T11:11:44.285Z,92364.95
2019-02-10T11:14:11.761Z,92363.22
2019-02-10T11:16:39.276Z,92344.45
2019-02-10T11:19:06.696Z,92343.33
2019-02-10T11:21:34.214Z,92341.34
2019-02-10T11:24:01.999Z,92326.53
2019-02-10T11:26:29.576Z,92328.50
2019-02-10T11:28:57.079Z,92324.60
2019-02-10T11:31:24.549Z,92319.58
2019-02-10T11:33:51.938Z,92308.19
2019-02-10T11:36:19.358Z,92307.17
2019-02-10T11:38:46.901Z,92303.61
2019-02-10T11:41:14.405Z,92303.75
2019-02-10T11:43:41.931Z,92299.34
2019-02-10T11:46:09.430Z,92308.63
2019-02-10T11:48:37.078Z,92294.75
2019-02-10T11:51:04.491Z,92282.97
2019-02-10T11:53:31.879Z,92270.23
2019-02-10T11:55:59.318Z,92271.38
2019-02-10T11:58:26.754Z,92266.70
2019-02-10T12:00:54.226Z,92231.65
2019-02-10T12:03:21.623Z,92214.88
2019-02-10T12:05:49.232Z,92221.52
2019-02-10T12:08:16.713Z,92227.50
2019-02-10T12:10:44.130Z,92226.48
2019-02-10T12:13:11.621Z,92224.30
2019-02-10T12:15:39.106Z,92234.17
2019-02-10T12:18:06.527Z,92229.02
2019-02-10T12:20:34.015Z,92231.27
2019-02-10T12:23:01.391Z,92233.52
2019-02-10T12:25:28.843Z,92221.81
2019-02-10T12:27:56.549Z,92222.06
2019-02-10T12:30:23.961Z,92220.17
2019-02-10T12:32:51.450Z,92230.17
2019-02-10T12:35:19.584Z,92207.88
2019-02-10T12:37:46.959Z,92241.03
2019-02-10T12:40:14.612Z,92238.91
2019-02-10T12:42:42.049Z,92243.34
2019-02-10T12:45:09.625Z,92232.40
2019-02-10T12:47:37.284Z,92241.28
2019-02-10T12:50:05.127Z,92237.31
2019-02-10T12:52:33.771Z,92251.31
2019-02-10T12:55:01.727Z,92253.24
2019-02-10T12:57:29.607Z,92260.37
2019-02-10T12:59:57.516Z,92244.46
2019-02-10T13:02:25.365Z,92256.73
2019-02-10T13:04:53.639Z,92250.23
2019-02-10T13:07:21.899Z,92247.44
2019-02-10T13:09:49.753Z,92257.31
2019-02-10T13:12:17.673Z,92260.81
2019-02-10T13:14:45.600Z,92257.44
2019-02-10T13:17:13.544Z,92260.56
2019-02-10T13:19:41.446Z,92267.70
2019-02-10T13:22:09.403Z,92254.82
2019-02-10T13:24:37.329Z,92245.66
2019-02-10T13:27:05.429Z,92235.64
2019-02-10T13:29:33.311Z,92234.63
2019-02-10T13:32:01.248Z,92242.73
2019-02-10T13:34:29.312Z,92231.98
2019-02-10T13:36:57.175Z,92220.66
2019-02-10T13:39:25.305Z,92223.23
2019-02-10T13:41:51.620Z,92208.97
2019-02-10T13:44:19.609Z,92192.06
2019-02-10T13:46:47.557Z,92184.80
2019-02-10T13:49:15.476Z,92186.70
2019-02-10T13:51:43.427Z,92173.41
2019-02-10T13:54:11.394Z,92163.04
2019-02-10T13:56:39.355Z,92160.72
2019-02-10T13:59:07.404Z,92172.26
2019-02-10T14:01:35.369Z,92161.08
2019-02-10T14:04:03.666Z,92142.27
2019-02-10T14:06:31.674Z,92148.89
2019-02-10T14:08:59.609Z,92158.30
2019-02-10T14:11:27.569Z,92148.58
2019-02-10T14:13:55.480Z,92136.98
2019-02-10T14:16:23.346Z,92140.80
2019-02-10T14:18:51.263Z,92133.06
2019-02-10T14:21:19.219Z,92111.02
2019-02-10T14:23:47.244Z,92131.87
2019-02-10T14:26:15.232Z,92127.25
2019-02-10T14:28:43.237Z,92127.50
2019-02-10T14:31:11.149Z,92127.50
2019-02-10T14:33:39.267Z,92127.84
2019-02-10T14:36:07.152Z,92124.33
2019-02-10T14:38:36.173Z,92120.53
2019-02-10T14:41:04.576Z,92128.50
2019-02-10T14:43:32.554Z,92117.17
2019-02-10T14:46:03.151Z,92125.03
2019-02-10T14:48:31.162Z,92115.71
2019-02-10T14:50:59.120Z,92111.71
2019-02-10T14:53:27.109Z,92094.48
2019-02-10T14:55:55.029Z,92099.28
2019-02-10T14:58:22.926Z,92091.81
2019-02-10T15:00:50.883Z,92098.96
2019-02-10T15:03:18.838Z,92081.25
2019-02-10T15:05:47.072Z,92089.27
2019-02-10T15:08:15.028Z,92088.06
2019-02-10T15:10:42.990Z,92080.15
2019-02-10T15:13:11.295Z,92085.55
2019-02-10T15:15:39.206Z,92088.41
2019-02-10T15:18:07.164Z,92085.50
2019-02-10T15:20:35.255Z,92099.28
2019-02-10T15:23:03.247Z,92095.67
2019-02-10T15:25:31.134Z,92100.60
2019-02-10T15:27:59.146Z,92115.83
2019-02-10T15:30:27.225Z,92121.34
2019-02-10T15:32:55.193Z,92142.56
2019-02-10T15:35:23.707Z,92150.02
2019-02-10T15:37:51.771Z,92160.73
2019-02-10T15:40:19.730Z,92176.73
2019-02-10T15:42:47.719Z,92197.40
2019-02-10T15:45:15.708Z,92205.21
2019-02-10T15:47:43.715Z,92218.03
2019-02-10T15:50:11.704Z,92225.09
2019-02-10T15:52:39.765Z,92236.94
2019-02-10T15:55:09.049Z,92249.52
2019-02-10T15:57:36.985Z,92255.85
2019-02-10T16:00:09.078Z,92271.38
2019-02-10T16:02:37.144Z,92276.59
2019-02-10T16:05:05.332Z,92290.00
2019-02-10T16:07:33.212Z,92292.03
2019-02-10T16:10:01.080Z,92296.08
2019-02-10T16:12:29.081Z,92303.48
2019-02-10T16:14:56.958Z,92306.97
2019-02-10T16:17:24.921Z,92309.68
2019-02-10T16:19:52.831Z,92309.57
2019-02-10T16:22:21.527Z,92312.58
2019-02-10T16:24:49.521Z,92312.89
2019-02-10T16:27:17.475Z,92314.98
2019-02-10T16:29:45.409Z,92320.80
2019-02-10T16:32:13.331Z,92322.48
2019-02-10T16:34:41.215Z,92307.48
2019-02-10T16:37:09.174Z,92312.69
2019-02-10T16:39:37.105Z,92297.47
2019-02-10T16:42:27.426Z,92301.28
2019-02-10T16:44:55.785Z,92302.69
2019-02-10T16:47:23.757Z,92313.06
2019-02-10T16:49:51.726Z,92295.06
2019-02-10T16:52:19.732Z,92305.66
2019-02-10T16:54:47.644Z,92303.47
2019-02-10T16:57:15.577Z,92312.67
2019-02-10T16:59:46.186Z,92308.24
2019-02-10T17:02:14.048Z,92332.63
2019-02-10T17:04:41.936Z,92327.59
2019-02-10T17:07:09.847Z,92334.02
2019-02-10T17:09:37.702Z,92345.00
2019-02-10T17:12:05.670Z,92370.98
2019-02-10T17:14:33.529Z,92387.56
2019-02-10T17:17:01.509Z,92392.17
2019-02-10T17:19:29.390Z,92386.09
2019-02-10T17:21:57.315Z,92412.31
2019-02-10T17:24:25.390Z,92450.42
2019-02-10T17:26:53.360Z,92461.44
2019-02-10T17:29:21.254Z,92471.66
2019-02-10T17:31:49.187Z,92463.13
2019-02-10T17:34:17.093Z,92465.05
2019-02-10T17:36:45.324Z,92470.71
2019-02-10T17:39:17.516Z,92484.98
2019-02-10T17:41:47.635Z,92500.16
2019-02-10T17:44:15.623Z,92500.30
2019-02-10T17:46:43.597Z,92509.27
2019-02-10T17:49:11.795Z,92518.95
2019-02-10T17:51:39.842Z,92520.24
2019-02-10T17:54:07.717Z,92542.54
2019-02-10T17:56:35.678Z,92559.12
2019-02-10T17:59:03.707Z,92583.06
2019-02-10T18:01:31.658Z,92573.31
2019-02-10T18:03:59.561Z,92574.93
2019-02-10T18:06:27.551Z,92569.67
2019-02-10T18:08:55.493Z,92586.16
2019-02-10T18:11:30.712Z,92608.91
2019-02-10T18:13:53.332Z,92624.09
2019-02-10T18:16:33.630Z,92625.64
2019-02-10T18:19:14.862Z,92595.69
2019-02-10T18:22:01.247Z,92603.41
2019-02-10T18:24:47.682Z,92612.91
2019-02-10T18:27:25.802Z,92625.20
2019-02-10T18:30:13.558Z,92636.95
2019-02-10T18:33:01.270Z,92660.65
2019-02-10T18:35:40.052Z,92662.01
2019-02-10T18:38:19.516Z,92666.05
2019-02-10T18:41:06.596Z,92680.80
2019-02-10T18:43:53.316Z,92677.43
2019-02-10T18:46:31.037Z,92682.02
2019-02-10T18:49:10.322Z,92708.44
2019-02-10T18:51:57.830Z,92715.15
2019-02-10T18:54:36.862Z,92723.16
2019-02-10T18:57:27.401Z,92708.89
2019-02-10T19:00:17.785Z,92721.77
2019-02-10T19:03:05.286Z,92724.72
2019-02-10T19:05:48.204Z,92746.71
2019-02-10T19:08:34.647Z,92751.73
2019-02-10T19:11:20.701Z,92757.57
2019-02-10T19:14:04.220Z,92769.41
2019-02-10T19:16:44.465Z,92769.14
2019-02-10T19:19:35.011Z,92755.63
2019-02-10T19:22:21.386Z,92767.02
2019-02-10T19:25:11.525Z,92755.19
2019-02-10T19:27:49.156Z,92742.61
2019-02-10T19:30:43.073Z,92750.27
2019-02-10T19:33:29.544Z,92760.75
2019-02-10T19:36:15.909Z,92777.06
2019-02-10T19:39:02.284Z,92771.48
2019-02-10T19:41:55.491Z,92778.33
2019-02-10T19:44:48.175Z,92779.34
2019-02-10T19:47:44.797Z,92782.58
2019-02-10T19:50:37.374Z,92780.52
2019-02-10T19:53:22.208Z,92782.25
2019-02-10T19:56:11.826Z,92768.66
2019-02-10T19:58:47.919Z,92766.98
2019-02-10T20:01:41.447Z,92760.02
2019-02-10T20:04:44.109Z,92739.75
2019-02-10T20:07:19.756Z,92735.81
2019-02-10T20:10:25.451Z,92736.45
2019-02-10T20:13:05.769Z,92744.92
2019-02-10T20:15:55.086Z,92747.07
2019-02-10T20:18:48.636Z,92733.27
2019-02-10T20:21:27.121Z,92730.13
2019-02-10T20:24:13.771Z,92741.59
2019-02-10T20:27:16.475Z,92757.73
2019-02-10T20:29:52.687Z,92753.62
2019-02-10T20:32:31.086Z,92759.35
2019-02-10T20:35:18.628Z,92769.08
2019-02-10T20:38:08.364Z,92763.62
2019-02-10T20:40:51.200Z,92771.22
2019-02-10T20:43:33.221Z,92769.77
2019-02-10T20:46:20.730Z,92775.31
2019-02-10T20:49:07.207Z,92780.50
2019-02-10T20:51:54.798Z,92776.98
2019-02-10T20:54:38.223Z,92777.34
2019-02-10T20:57:34.662Z,92779.13
2019-02-10T21:00:25.555Z,92785.73
2019-02-10T21:03:25.327Z,92782.44
2019-02-10T21:06:11.505Z,92792.48
2019-02-10T21:08:44.655Z,92787.58
2019-02-10T21:11:30.761Z,92801.26
2019-02-10T21:14:17.211Z,92806.69
2019-02-10T21:17:04.957Z,92794.29
2019-02-10T21:19:46.217Z,92795.63
2019-02-10T21:22:25.146Z,92798.50
2019-02-10T21:25:18.906Z,92803.12
2019-02-10T21:28:12.429Z,92789.00
2019-02-10T21:31:11.159Z,92793.09
2019-02-10T21:34:01.537Z,92788.97
2019-02-10T21:36:51.955Z,92807.47
2019-02-10T21:39:42.538Z,92811.23
2019-02-10T21:42:28.789Z,92812.84
2019-02-10T21:45:12.209Z,92802.97
2019-02-10T21:47:43.947Z,92810.05
2019-02-10T21:50:11.920Z,92811.95
2019-02-10T21:52:40.075Z,92804.18
2019-02-10T21:55:08.230Z,92804.80
2019-02-10T21:57:36.144Z,92808.03
2019-02-10T22:00:06.024Z,92803.45
2019-02-10T22:02:34.003Z,92798.86
2019-02-10T22:05:01.926Z,92796.27
2019-02-10T22:07:29.843Z,92807.45
2019-02-10T22:09:57.748Z,92792.11
2019-02-10T22:12:25.718Z,92791.22
2019-02-10T22:14:53.583Z,92802.34
2019-02-10T22:17:21.431Z,92799.03
2019-02-10T22:19:49.714Z,92806.00
2019-02-10T22:22:17.742Z,92800.81
2019-02-10T22:24:45.603Z,92805.94
2019-02-10T22:27:13.535Z,92799.67
2019-02-10T22:29:41.474Z,92817.61
2019-02-10T22:32:09.640Z,92821.86
2019-02-10T22:34:37.604Z,92827.70
2019-02-10T22:37:05.477Z,92817.61
2019-02-10T22:39:33.386Z,92821.17
2019-02-10T22:42:01.231Z,92818.63
2019-02-10T22:44:29.120Z,92813.44
2019-02-10T22:46:57.024Z,92821.13
2019-02-10T22:49:24.904Z,92827.65
2019-02-10T22:51:52.775Z,92834.13
2019-02-10T22:54:20.667Z,92840.89
2019-02-10T22:56:48.641Z,92841.70
2019-02-10T22:59:16.503Z,92848.61
2019-02-10T23:01:44.563Z,92857.36
2019-02-10T23:04:12.446Z,92853.20
2019-02-10T23:06:40.380Z,92853.48
2019-02-10T23:09:13.160Z,92864.86
2019-02-10T23:11:41.084Z,92872.27
2019-02-10T23:14:08.926Z,92880.70
2019-02-10T23:16:36.830Z,92887.50
2019-02-10T23:19:04.696Z,92889.09
2019-02-10T23:21:32.538Z,92893.66
2019-02-10T23:24:00.713Z,92900.42
2019-02-10T23:26:28.570Z,92901.77
2019-02-10T23:28:56.454Z,92908.73
2019-02-10T23:31:24.305Z,92913.71
2019-02-10T23:33:52.186Z,92916.34
2019-02-10T23:36:20.054Z,92922.17
2019-02-10T23:38:47.921Z,92919.58
2019-02-10T23:41:15.747Z,92934.48
2019-02-10T23:43:43.615Z,92927.39
2019-02-10T23:46:11.477Z,92929.95
2019-02-10T23:48:39.409Z,92936.43
2019-02-10T23:51:07.276Z,92940.36
2019-02-10T23:53:35.132Z,92920.66
2019-02-10T23:56:03.247Z,92919.05
2019-02-10T23:58:31.090Z,92929.05
